createdAt,value
2018-09-06T00:00:20.114Z,0
2018-09-06T00:01:20.890Z,0
2018-09-06T00:02:21.620Z,0
2018-09-06T00:03:22.344Z,0
2018-09-06T00:04:23.061Z,0
2018-09-06T00:05:23.792Z,0
2018-09-06T00:06:24.581Z,0
2018-09-06T00:07:25.287Z,0
2018-09-06T00:08:26.010Z,0
2018-09-06T00:09:26.745Z,0
2018-09-06T00:10:27.462Z,0
2018-09-06T00:11:28.491Z,0
2018-09-06T00:12:29.474Z,0
2018-09-06T00:13:30.197Z,0
2018-09-06T00:14:30.912Z,0
2018-09-06T00:15:31.637Z,0
2018-09-06T00:16:32.358Z,0
2018-09-06T00:17:33.069Z,0
2018-09-06T00:18:33.798Z,0
2018-09-06T00:19:34.526Z,0
2018-09-06T00:20:35.254Z,0
2018-09-06T00:21:35.979Z,0
2018-09-06T00:22:38.340Z,0
2018-09-06T00:23:40.499Z,0
2018-09-06T00:24:42.589Z,0
2018-09-06T00:25:44.577Z,0
2018-09-06T00:26:46.492Z,0
2018-09-06T00:27:49.049Z,0
2018-09-06T00:28:51.018Z,0
2018-09-06T00:29:53.011Z,0
2018-09-06T00:30:54.408Z,0
2018-09-06T00:31:55.126Z,0
2018-09-06T00:32:55.857Z,0
2018-09-06T00:33:56.581Z,0
2018-09-06T00:34:57.307Z,0
2018-09-06T00:35:58.029Z,0
2018-09-06T00:36:58.742Z,0
2018-09-06T00:37:59.482Z,0
2018-09-06T00:39:00.199Z,0
2018-09-06T00:40:00.921Z,0
2018-09-06T00:41:01.643Z,0
2018-09-06T00:42:02.367Z,0
2018-09-06T00:43:03.144Z,0
2018-09-06T00:44:03.875Z,0
2018-09-06T00:45:04.596Z,0
2018-09-06T00:46:05.315Z,0
2018-09-06T00:47:06.045Z,0
2018-09-06T00:48:06.817Z,0
2018-09-06T00:49:07.568Z,0
2018-09-06T00:50:08.284Z,0
2018-09-06T00:51:09.248Z,0
2018-09-06T00:52:09.976Z,0
2018-09-06T00:53:10.953Z,0
2018-09-06T00:54:11.927Z,0
2018-09-06T00:55:12.640Z,0
2018-09-06T00:56:13.359Z,0
2018-09-06T00:57:14.094Z,0
2018-09-06T00:58:14.814Z,0
2018-09-06T00:59:15.532Z,0
2018-09-06T01:00:16.260Z,0
2018-09-06T01:01:17.234Z,0
2018-09-06T01:02:17.947Z,0
2018-09-06T01:03:18.662Z,0
2018-09-06T01:04:19.393Z,0
2018-09-06T01:05:20.110Z,0
2018-09-06T01:06:20.831Z,0
2018-09-06T01:07:21.557Z,0
2018-09-06T01:08:22.280Z,0
2018-09-06T01:09:23.048Z,0
2018-09-06T01:10:23.778Z,0
2018-09-06T01:11:24.489Z,0
2018-09-06T01:12:25.458Z,0
2018-09-06T01:13:26.185Z,0
2018-09-06T01:14:26.964Z,0
2018-09-06T01:15:27.686Z,0
2018-09-06T01:16:28.394Z,0
2018-09-06T01:17:29.356Z,0
2018-09-06T01:18:30.079Z,0
2018-09-06T01:19:30.812Z,0
2018-09-06T01:20:31.532Z,0
2018-09-06T01:21:32.251Z,0
2018-09-06T01:22:32.970Z,0
2018-09-06T01:23:33.685Z,0
2018-09-06T01:24:34.406Z,0
2018-09-06T01:25:35.368Z,0
2018-09-06T01:26:36.083Z,0
2018-09-06T01:27:36.804Z,0
2018-09-06T01:28:37.536Z,0
2018-09-06T01:29:38.253Z,0
2018-09-06T01:30:39.223Z,0
2018-09-06T01:31:39.944Z,0
2018-09-06T01:32:40.665Z,0
2018-09-06T01:33:41.382Z,0
2018-09-06T01:34:42.096Z,0
2018-09-06T01:35:42.815Z,0
2018-09-06T01:36:43.527Z,0
2018-09-06T01:37:44.258Z,0
2018-09-06T01:38:45.276Z,0
2018-09-06T01:39:46.010Z,0
2018-09-06T01:40:46.731Z,0
2018-09-06T01:41:47.455Z,0
2018-09-06T01:42:48.175Z,0
2018-09-06T01:43:49.188Z,0
2018-09-06T01:44:49.912Z,0
2018-09-06T01:45:50.628Z,0
2018-09-06T01:46:51.344Z,0
2018-09-06T01:47:52.310Z,0
2018-09-06T01:48:53.289Z,0
2018-09-06T01:49:54.014Z,0
2018-09-06T01:50:54.733Z,0
2018-09-06T01:51:55.704Z,0
2018-09-06T01:52:56.431Z,0
2018-09-06T01:53:57.145Z,0
2018-09-06T01:54:57.873Z,0
2018-09-06T01:55:58.851Z,0
2018-09-06T01:56:59.619Z,0
2018-09-06T01:58:00.343Z,0
2018-09-06T01:59:01.072Z,0
2018-09-06T02:00:02.041Z,0
2018-09-06T02:01:02.760Z,0
2018-09-06T02:02:03.527Z,0
2018-09-06T02:03:04.259Z,0
2018-09-06T02:04:04.981Z,0
2018-09-06T02:05:05.949Z,0
2018-09-06T02:06:06.919Z,0
2018-09-06T02:07:07.645Z,0
2018-09-06T02:08:08.367Z,0
2018-09-06T02:09:09.096Z,0
2018-09-06T02:10:09.831Z,0
2018-09-06T02:11:10.549Z,0
2018-09-06T02:12:11.272Z,0
2018-09-06T02:13:12.257Z,0
2018-09-06T02:14:12.982Z,0
2018-09-06T02:15:13.715Z,0
2018-09-06T02:16:14.437Z,0
2018-09-06T02:17:15.394Z,0
2018-09-06T02:18:16.123Z,0
2018-09-06T02:19:17.095Z,0
2018-09-06T02:20:17.816Z,0
2018-09-06T02:21:18.543Z,0
2018-09-06T02:22:19.260Z,0
2018-09-06T02:23:20.235Z,0
2018-09-06T02:24:20.992Z,0
2018-09-06T02:25:21.688Z,0
2018-09-06T02:26:22.409Z,0
2018-09-06T02:27:23.393Z,0
2018-09-06T02:28:24.110Z,0
2018-09-06T02:29:24.837Z,0
2018-09-06T02:30:25.617Z,0
2018-09-06T02:31:26.340Z,0
2018-09-06T02:32:27.060Z,0
2018-09-06T02:33:27.776Z,0
2018-09-06T02:34:28.505Z,0
2018-09-06T02:35:29.220Z,0
2018-09-06T02:36:30.187Z,0
2018-09-06T02:37:30.912Z,0
2018-09-06T02:38:31.627Z,0
2018-09-06T02:39:32.360Z,0
2018-09-06T02:40:33.077Z,0
2018-09-06T02:41:33.816Z,0
2018-09-06T02:42:34.533Z,0
2018-09-06T02:43:35.263Z,0
2018-09-06T02:44:35.997Z,0
2018-09-06T02:45:36.729Z,0
2018-09-06T02:46:37.436Z,0
2018-09-06T02:47:38.396Z,0
2018-09-06T02:48:39.110Z,0
2018-09-06T02:49:40.077Z,0
2018-09-06T02:50:40.805Z,0
2018-09-06T02:51:41.528Z,0
2018-09-06T02:52:42.251Z,0
2018-09-06T02:53:43.026Z,0
2018-09-06T02:54:43.704Z,0
2018-09-06T02:55:44.419Z,0
2018-09-06T02:56:45.142Z,0
2018-09-06T02:57:45.861Z,0
2018-09-06T02:58:46.581Z,0
2018-09-06T02:59:47.307Z,0
2018-09-06T03:00:48.026Z,0
2018-09-06T03:01:49.044Z,0
2018-09-06T03:02:49.770Z,0
2018-09-06T03:03:50.484Z,0
2018-09-06T03:04:51.204Z,0
2018-09-06T03:05:51.924Z,0
2018-09-06T03:06:52.642Z,0
2018-09-06T03:07:53.368Z,0
2018-09-06T03:08:54.093Z,0
2018-09-06T03:09:54.813Z,0
2018-09-06T03:10:55.534Z,0
2018-09-06T03:11:56.259Z,0
2018-09-06T03:12:56.994Z,0
2018-09-06T03:13:57.708Z,0
2018-09-06T03:14:58.441Z,0
2018-09-06T03:15:59.174Z,0
2018-09-06T03:16:59.886Z,0
2018-09-06T03:18:00.846Z,0
2018-09-06T03:19:01.623Z,0
2018-09-06T03:20:02.343Z,0
2018-09-06T03:21:03.067Z,0
2018-09-06T03:22:03.799Z,0
2018-09-06T03:23:04.517Z,0
2018-09-06T03:24:05.255Z,0
2018-09-06T03:25:05.977Z,0
2018-09-06T03:26:06.699Z,0
2018-09-06T03:27:07.424Z,0
2018-09-06T03:28:08.140Z,0
2018-09-06T03:29:08.918Z,0
2018-09-06T03:30:09.644Z,0
2018-09-06T03:31:10.360Z,0
2018-09-06T03:32:11.082Z,0
2018-09-06T03:33:11.798Z,0
2018-09-06T03:34:12.761Z,0
2018-09-06T03:35:13.482Z,0
2018-09-06T03:36:14.205Z,0
2018-09-06T03:37:14.931Z,0
2018-09-06T03:38:15.656Z,0
2018-09-06T03:39:16.382Z,0
2018-09-06T03:40:17.086Z,0
2018-09-06T03:41:17.812Z,0
2018-09-06T03:42:18.787Z,0
2018-09-06T03:43:19.756Z,0
2018-09-06T03:44:20.495Z,0
2018-09-06T03:45:21.202Z,0
2018-09-06T03:46:22.165Z,0
2018-09-06T03:47:22.891Z,0
2018-09-06T03:48:23.610Z,0
2018-09-06T03:49:24.329Z,0
2018-09-06T03:50:25.050Z,0
2018-09-06T03:51:25.767Z,0
2018-09-06T03:52:26.488Z,0
2018-09-06T03:53:27.220Z,0
2018-09-06T03:54:27.940Z,0
2018-09-06T03:55:28.814Z,0
2018-09-06T03:56:29.529Z,0
2018-09-06T03:57:30.244Z,0
2018-09-06T03:58:30.964Z,0
2018-09-06T03:59:31.681Z,0
2018-09-06T04:00:32.448Z,0
2018-09-06T04:01:33.198Z,0
2018-09-06T04:02:33.916Z,0
2018-09-06T04:03:34.640Z,0
2018-09-06T04:04:35.357Z,0
2018-09-06T04:05:36.072Z,0
2018-09-06T04:06:36.805Z,0
2018-09-06T04:07:37.534Z,0
2018-09-06T04:08:38.264Z,0
2018-09-06T04:09:38.976Z,4
2018-09-06T04:10:39.708Z,4
2018-09-06T04:11:40.432Z,0
2018-09-06T04:12:41.162Z,4
2018-09-06T04:13:41.877Z,4
2018-09-06T04:14:42.584Z,4
2018-09-06T04:15:43.308Z,8
2018-09-06T04:16:44.282Z,8
2018-09-06T04:17:45.009Z,8
2018-09-06T04:18:45.735Z,12
2018-09-06T04:19:46.462Z,12
2018-09-06T04:20:47.185Z,12
2018-09-06T04:21:47.906Z,16
2018-09-06T04:22:48.623Z,20
2018-09-06T04:23:49.350Z,24
2018-09-06T04:24:50.072Z,28
2018-09-06T04:25:50.796Z,32
2018-09-06T04:26:51.510Z,40
2018-09-06T04:27:52.231Z,44
2018-09-06T04:28:52.951Z,52
2018-09-06T04:29:53.681Z,64
2018-09-06T04:30:54.410Z,68
2018-09-06T04:31:55.129Z,80
2018-09-06T04:32:55.858Z,92
2018-09-06T04:33:56.589Z,108
2018-09-06T04:34:57.319Z,116
2018-09-06T04:35:58.050Z,136
2018-09-06T04:36:58.786Z,152
2018-09-06T04:37:59.507Z,168
2018-09-06T04:39:00.485Z,188
2018-09-06T04:40:01.209Z,212
2018-09-06T04:41:01.925Z,232
2018-09-06T04:42:02.665Z,256
2018-09-06T04:43:03.377Z,280
2018-09-06T04:44:04.102Z,308
2018-09-06T04:45:04.841Z,336
2018-09-06T04:46:05.577Z,364
2018-09-06T04:47:06.311Z,396
2018-09-06T04:48:07.044Z,432
2018-09-06T04:49:07.764Z,468
2018-09-06T04:50:08.495Z,500
2018-09-06T04:51:09.234Z,536
2018-09-06T04:52:09.953Z,576
2018-09-06T04:53:10.690Z,612
2018-09-06T04:54:11.413Z,656
2018-09-06T04:55:12.168Z,696
2018-09-06T04:56:12.871Z,740
2018-09-06T04:57:13.601Z,784
2018-09-06T04:58:14.319Z,832
2018-09-06T04:59:15.069Z,876
2018-09-06T05:00:15.776Z,924
2018-09-06T05:01:16.501Z,976
2018-09-06T05:02:17.228Z,1020
2018-09-06T05:03:17.957Z,1072
2018-09-06T05:04:18.750Z,1124
2018-09-06T05:05:19.427Z,1180
2018-09-06T05:06:20.161Z,1236
2018-09-06T05:07:20.876Z,1292
2018-09-06T05:08:21.602Z,1352
2018-09-06T05:09:22.332Z,1412
2018-09-06T05:10:23.057Z,1468
2018-09-06T05:11:23.788Z,1528
2018-09-06T05:12:24.503Z,1584
2018-09-06T05:13:25.249Z,1648
2018-09-06T05:14:25.976Z,1712
2018-09-06T05:15:26.940Z,1772
2018-09-06T05:16:27.686Z,1840
2018-09-06T05:17:28.420Z,1904
2018-09-06T05:18:29.211Z,1968
2018-09-06T05:19:29.947Z,2040
2018-09-06T05:20:30.679Z,2108
2018-09-06T05:21:31.394Z,2180
2018-09-06T05:22:32.118Z,2256
2018-09-06T05:23:32.889Z,2328
2018-09-06T05:24:33.612Z,2396
2018-09-06T05:25:34.338Z,2464
2018-09-06T05:26:35.058Z,2536
2018-09-06T05:27:35.798Z,2600
2018-09-06T05:28:36.514Z,2664
2018-09-06T05:29:37.260Z,2732
2018-09-06T05:30:38.010Z,2800
2018-09-06T05:31:38.717Z,2864
2018-09-06T05:32:39.448Z,2936
2018-09-06T05:33:40.229Z,3004
2018-09-06T05:34:40.948Z,3068
2018-09-06T05:35:41.671Z,3132
2018-09-06T05:36:42.403Z,3200
2018-09-06T05:37:43.132Z,3272
2018-09-06T05:38:43.902Z,3340
2018-09-06T05:39:44.636Z,3408
2018-09-06T05:40:45.364Z,3480
2018-09-06T05:41:46.093Z,3552
2018-09-06T05:42:46.822Z,3616
2018-09-06T05:43:47.606Z,3680
2018-09-06T05:44:48.332Z,3752
2018-09-06T05:45:49.059Z,3824
2018-09-06T05:46:49.799Z,3896
2018-09-06T05:47:50.518Z,3964
2018-09-06T05:48:51.487Z,4040
2018-09-06T05:49:52.220Z,4116
2018-09-06T05:50:52.944Z,4184
2018-09-06T05:51:53.674Z,4248
2018-09-06T05:52:54.394Z,4316
2018-09-06T05:53:55.121Z,4376
2018-09-06T05:54:55.903Z,4436
2018-09-06T05:55:56.628Z,4504
2018-09-06T05:56:57.358Z,4560
2018-09-06T05:57:58.096Z,4612
2018-09-06T05:58:58.813Z,4668
2018-09-06T05:59:59.621Z,4716
2018-09-06T06:01:00.329Z,4764
2018-09-06T06:02:01.066Z,4812
2018-09-06T06:03:01.774Z,4856
2018-09-06T06:04:02.511Z,4912
2018-09-06T06:05:03.285Z,4968
2018-09-06T06:06:04.015Z,5028
2018-09-06T06:07:04.744Z,5084
2018-09-06T06:08:05.470Z,5140
2018-09-06T06:09:06.536Z,5196
2018-09-06T06:10:07.556Z,5248
2018-09-06T06:11:08.293Z,5304
2018-09-06T06:12:09.024Z,5364
2018-09-06T06:13:09.769Z,5428
2018-09-06T06:14:10.506Z,5496
2018-09-06T06:15:11.228Z,5564
2018-09-06T06:16:11.956Z,5640
2018-09-06T06:17:12.690Z,5712
2018-09-06T06:18:13.416Z,5784
2018-09-06T06:19:14.143Z,5844
2018-09-06T06:20:14.870Z,5896
2018-09-06T06:21:15.598Z,5948
2018-09-06T06:22:16.395Z,6000
2018-09-06T06:23:17.103Z,6072
2018-09-06T06:24:17.832Z,6156
2018-09-06T06:25:18.562Z,6240
2018-09-06T06:26:19.301Z,6324
2018-09-06T06:27:20.022Z,6400
2018-09-06T06:28:20.764Z,6492
2018-09-06T06:29:21.483Z,6576
2018-09-06T06:30:22.223Z,6652
2018-09-06T06:31:22.945Z,6724
2018-09-06T06:32:23.755Z,6804
2018-09-06T06:33:24.416Z,6880
2018-09-06T06:34:25.441Z,6956
2018-09-06T06:35:26.422Z,7024
2018-09-06T06:36:27.131Z,7096
2018-09-06T06:37:27.856Z,7168
2018-09-06T06:38:28.584Z,7212
2018-09-06T06:39:29.318Z,7260
2018-09-06T06:40:30.046Z,7300
2018-09-06T06:41:30.777Z,7340
2018-09-06T06:42:31.509Z,7384
2018-09-06T06:43:32.245Z,7428
2018-09-06T06:44:32.969Z,7468
2018-09-06T06:45:33.696Z,7508
2018-09-06T06:46:34.477Z,7556
2018-09-06T06:47:35.205Z,7604
2018-09-06T06:48:35.922Z,7660
2018-09-06T06:49:36.663Z,7732
2018-09-06T06:50:37.393Z,7812
2018-09-06T06:51:38.169Z,7908
2018-09-06T06:52:38.953Z,8008
2018-09-06T06:53:39.669Z,8132
2018-09-06T06:54:40.395Z,8268
2018-09-06T06:55:41.117Z,8408
2018-09-06T06:56:41.837Z,8568
2018-09-06T06:57:42.833Z,8728
2018-09-06T06:58:43.647Z,8928
2018-09-06T06:59:44.293Z,9208
2018-09-06T07:00:45.072Z,9556
2018-09-06T07:01:46.227Z,10020
2018-09-06T07:02:46.990Z,10584
2018-09-06T07:03:47.730Z,11140
2018-09-06T07:04:48.969Z,11620
2018-09-06T07:05:50.307Z,12000
2018-09-06T07:06:51.704Z,12280
2018-09-06T07:07:52.352Z,12444
2018-09-06T07:08:53.089Z,12460
2018-09-06T07:09:54.089Z,12412
2018-09-06T07:10:54.822Z,12332
2018-09-06T07:11:55.558Z,12244
2018-09-06T07:12:56.348Z,12192
2018-09-06T07:13:57.073Z,12108
2018-09-06T07:14:57.825Z,11900
2018-09-06T07:15:58.567Z,11660
2018-09-06T07:16:59.309Z,11428
2018-09-06T07:18:00.291Z,11288
2018-09-06T07:19:01.017Z,12336
2018-09-06T07:20:01.757Z,13164
2018-09-06T07:21:02.491Z,11332
2018-09-06T07:22:03.225Z,11532
2018-09-06T07:23:03.953Z,12064
2018-09-06T07:24:04.729Z,12408
2018-09-06T07:25:05.475Z,12396
2018-09-06T07:26:06.221Z,12772
2018-09-06T07:27:06.943Z,13240
2018-09-06T07:28:07.684Z,13736
2018-09-06T07:29:09.141Z,14064
2018-09-06T07:30:09.889Z,15976
2018-09-06T07:31:10.631Z,16120
2018-09-06T07:32:11.361Z,17032
2018-09-06T07:33:12.089Z,15540
2018-09-06T07:34:13.179Z,15736
2018-09-06T07:35:13.938Z,15980
2018-09-06T07:36:14.646Z,16104
2018-09-06T07:37:15.372Z,16272
2018-09-06T07:38:16.115Z,17764
2018-09-06T07:39:16.832Z,20000
2018-09-06T07:40:17.567Z,19392
2018-09-06T07:41:18.666Z,26048
2018-09-06T07:42:19.384Z,27200
2018-09-06T07:43:20.359Z,20352
2018-09-06T07:44:21.094Z,17344
2018-09-06T07:45:21.834Z,16712
2018-09-06T07:46:22.555Z,16568
2018-09-06T07:47:23.299Z,15396
2018-09-06T07:48:24.044Z,19008
2018-09-06T07:49:24.771Z,17216
2018-09-06T07:50:25.518Z,26336
2018-09-06T07:51:26.250Z,16612
2018-09-06T07:52:27.000Z,16896
2018-09-06T07:53:27.719Z,17172
2018-09-06T07:54:28.515Z,17536
2018-09-06T07:55:29.189Z,21152
2018-09-06T07:56:29.921Z,17708
2018-09-06T07:57:30.653Z,18148
2018-09-06T07:58:31.375Z,19104
2018-09-06T07:59:32.099Z,19200
2018-09-06T08:00:32.830Z,19232
2018-09-06T08:01:34.628Z,20576
2018-09-06T08:02:35.334Z,19520
2018-09-06T08:03:36.095Z,22848
2018-09-06T08:04:37.220Z,29984
2018-09-06T08:05:37.983Z,33536
2018-09-06T08:06:38.729Z,30368
2018-09-06T08:07:39.465Z,32352
2018-09-06T08:08:40.204Z,35584
2018-09-06T08:09:40.941Z,36352
2018-09-06T08:10:41.686Z,37696
2018-09-06T08:11:42.416Z,39616
2018-09-06T08:12:43.197Z,39296
2018-09-06T08:13:43.929Z,29024
2018-09-06T08:14:44.671Z,23808
2018-09-06T08:15:45.406Z,26656
2018-09-06T08:16:46.130Z,36576
2018-09-06T08:17:46.856Z,31808
2018-09-06T08:18:48.284Z,30976
2018-09-06T08:19:49.256Z,24768
2018-09-06T08:20:49.989Z,26880
2018-09-06T08:21:50.740Z,42784
2018-09-06T08:22:51.475Z,45696
2018-09-06T08:23:52.206Z,44032
2018-09-06T08:24:53.187Z,29184
2018-09-06T08:25:53.914Z,28672
2018-09-06T08:26:54.664Z,29184
2018-09-06T08:27:55.472Z,29664
2018-09-06T08:28:56.402Z,29920
2018-09-06T08:29:57.131Z,29472
2018-09-06T08:30:58.239Z,28896
2018-09-06T08:31:58.853Z,28576
2018-09-06T08:32:59.588Z,28864
2018-09-06T08:34:00.328Z,29632
2018-09-06T08:35:01.405Z,37024
2018-09-06T08:36:02.148Z,32800
2018-09-06T08:37:02.869Z,26880
2018-09-06T08:38:03.615Z,32896
2018-09-06T08:39:04.760Z,27456
2018-09-06T08:40:05.666Z,22944
2018-09-06T08:41:06.391Z,21312
2018-09-06T08:42:07.129Z,20512
2018-09-06T08:43:07.861Z,20544
2018-09-06T08:44:08.608Z,22656
2018-09-06T08:45:09.715Z,20512
2018-09-06T08:46:10.517Z,26592
2018-09-06T08:47:11.280Z,20608
2018-09-06T08:48:12.010Z,20672
2018-09-06T08:49:12.759Z,20800
2018-09-06T08:50:14.098Z,21376
2018-09-06T08:51:15.014Z,23136
2018-09-06T08:52:15.794Z,45472
2018-09-06T08:53:16.507Z,50400
2018-09-06T08:54:17.251Z,52864
2018-09-06T08:55:18.244Z,52384
2018-09-06T08:56:19.236Z,49152
2018-09-06T08:57:19.962Z,48768
2018-09-06T08:58:21.341Z,49280
2018-09-06T08:59:22.164Z,50176
2018-09-06T09:00:22.888Z,51776
2018-09-06T09:01:23.623Z,48320
2018-09-06T09:02:24.847Z,44224
2018-09-06T09:03:25.493Z,44640
2018-09-06T09:04:26.267Z,46880
2018-09-06T09:05:27.066Z,48704
2018-09-06T09:06:28.445Z,50016
2018-09-06T09:07:29.359Z,49216
2018-09-06T09:08:30.317Z,52352
2018-09-06T09:09:31.011Z,53088
2018-09-06T09:10:31.743Z,44544
2018-09-06T09:11:32.478Z,41600
2018-09-06T09:12:33.271Z,27136
2018-09-06T09:13:33.969Z,34656
2018-09-06T09:14:34.958Z,26592
2018-09-06T09:15:35.691Z,23232
2018-09-06T09:16:36.773Z,22720
2018-09-06T09:17:37.507Z,20928
2018-09-06T09:18:38.253Z,21216
2018-09-06T09:19:38.989Z,21824
2018-09-06T09:20:39.725Z,19680
2018-09-06T09:21:40.546Z,19936
2018-09-06T09:22:41.258Z,21312
2018-09-06T09:23:41.993Z,25632
2018-09-06T09:24:42.730Z,38496
2018-09-06T09:25:43.456Z,38048
2018-09-06T09:26:44.446Z,51232
2018-09-06T09:27:45.917Z,54464
2018-09-06T09:28:46.681Z,54848
2018-09-06T09:29:47.405Z,50720
2018-09-06T09:30:48.142Z,51968
2018-09-06T09:31:48.887Z,51296
2018-09-06T09:32:49.976Z,45248
2018-09-06T09:33:51.156Z,41568
2018-09-06T09:34:52.353Z,41344
2018-09-06T09:35:53.108Z,41600
2018-09-06T09:36:53.837Z,47424
2018-09-06T09:37:54.568Z,53376
2018-09-06T09:38:55.547Z,57696
2018-09-06T09:39:56.297Z,56224
2018-09-06T09:40:57.037Z,56992
2018-09-06T09:41:57.778Z,55936
2018-09-06T09:42:58.507Z,57664
2018-09-06T09:43:59.237Z,60736
2018-09-06T09:44:59.993Z,61536
2018-09-06T09:48:04.338Z,59200
2018-09-06T09:49:05.078Z,60000
2018-09-06T09:50:06.064Z,67008
2018-09-06T09:51:06.799Z,64960
2018-09-06T09:52:07.541Z,62688
2018-09-06T09:53:08.292Z,60384
2018-09-06T09:54:09.020Z,52544
2018-09-06T09:55:09.769Z,38976
2018-09-06T09:56:10.553Z,38432
2018-09-06T09:57:11.340Z,36960
2018-09-06T09:58:12.033Z,48768
2018-09-06T09:59:12.773Z,46496
2018-09-06T10:00:13.758Z,63648
2018-09-06T10:01:14.505Z,53056
2018-09-06T10:02:15.494Z,49632
2018-09-06T10:03:16.744Z,58208
2018-09-06T10:04:17.482Z,50752
2018-09-06T10:05:18.221Z,35968
2018-09-06T10:06:19.217Z,36032
2018-09-06T10:07:19.937Z,36736
2018-09-06T10:08:20.688Z,38880
2018-09-06T10:09:21.472Z,43072
2018-09-06T10:10:22.213Z,55552
2018-09-06T10:11:22.960Z,50688
2018-09-06T10:12:23.702Z,54720
2018-09-06T10:13:24.438Z,50784
2018-09-06T10:14:25.231Z,49760
2018-09-06T10:15:25.962Z,44160
2018-09-06T10:16:26.705Z,47872
2018-09-06T10:17:27.441Z,48640
2018-09-06T10:18:28.185Z,45088
2018-09-06T10:19:29.180Z,47136
2018-09-06T10:20:29.906Z,47968
2018-09-06T10:21:30.645Z,48000
2018-09-06T10:22:31.388Z,46528
2018-09-06T10:23:32.373Z,56640
2018-09-06T10:24:33.104Z,54592
2018-09-06T10:25:33.848Z,44992
2018-09-06T10:26:34.580Z,59968
2018-09-06T10:27:35.322Z,42560
2018-09-06T10:28:36.307Z,43744
2018-09-06T10:29:37.037Z,52544
2018-09-06T10:30:37.780Z,54176
2018-09-06T10:31:38.510Z,51808
2018-09-06T10:32:39.552Z,54336
2018-09-06T10:33:40.275Z,54176
2018-09-06T10:34:41.025Z,55520
2018-09-06T10:35:41.756Z,58368
2018-09-06T10:36:42.502Z,59840
2018-09-06T10:37:43.488Z,55520
2018-09-06T10:38:44.228Z,53792
2018-09-06T10:39:44.961Z,43552
2018-09-06T10:40:45.791Z,44672
2018-09-06T10:41:46.443Z,41216
2018-09-06T10:42:47.193Z,44192
2018-09-06T10:43:47.927Z,47648
2018-09-06T10:44:48.713Z,49408
2018-09-06T10:45:49.952Z,51712
2018-09-06T10:46:50.679Z,54272
2018-09-06T10:47:51.447Z,53152
2018-09-06T10:48:52.152Z,49120
2018-09-06T10:49:53.268Z,48928
2018-09-06T10:50:54.006Z,48320
2018-09-06T10:51:54.739Z,51424
2018-09-06T10:52:55.484Z,52864
2018-09-06T10:53:56.476Z,55104
2018-09-06T10:54:57.239Z,55232
2018-09-06T10:55:57.978Z,51488
2018-09-06T10:56:58.730Z,51808
2018-09-06T10:57:59.465Z,51360
2018-09-06T10:59:00.204Z,48000
2018-09-06T11:00:00.945Z,48864
2018-09-06T11:01:01.696Z,48928
2018-09-06T11:02:02.431Z,46592
2018-09-06T11:03:03.179Z,36576
2018-09-06T11:04:03.929Z,33216
2018-09-06T11:05:04.658Z,30528
2018-09-06T11:06:05.402Z,28544
2018-09-06T11:07:06.189Z,27712
2018-09-06T11:08:06.971Z,27264
2018-09-06T11:09:07.669Z,26976
2018-09-06T11:10:08.409Z,26912
2018-09-06T11:11:09.133Z,28288
2018-09-06T11:12:09.880Z,29152
2018-09-06T11:13:10.681Z,29120
2018-09-06T11:14:11.415Z,29664
2018-09-06T11:15:12.163Z,36192
2018-09-06T11:16:12.895Z,32064
2018-09-06T11:17:13.622Z,30720
2018-09-06T11:18:14.405Z,29344
2018-09-06T11:19:15.142Z,28384
2018-09-06T11:20:15.886Z,27488
2018-09-06T11:21:16.703Z,26272
2018-09-06T11:22:17.485Z,25248
2018-09-06T11:23:18.081Z,24384
2018-09-06T11:24:19.066Z,24064
2018-09-06T11:25:19.805Z,24288
2018-09-06T11:26:20.544Z,24896
2018-09-06T11:27:21.305Z,25952
2018-09-06T11:28:22.014Z,28416
2018-09-06T11:29:23.048Z,26560
2018-09-06T11:30:23.795Z,24960
2018-09-06T11:31:24.529Z,23264
2018-09-06T11:32:25.265Z,21440
2018-09-06T11:33:26.090Z,19616
2018-09-06T11:34:26.761Z,17888
2018-09-06T11:35:27.494Z,16244
2018-09-06T11:36:28.231Z,14968
2018-09-06T11:37:28.973Z,13752
2018-09-06T11:38:29.716Z,12648
2018-09-06T11:39:30.794Z,11576
2018-09-06T11:40:31.613Z,10536
2018-09-06T11:41:32.284Z,9636
2018-09-06T11:42:33.022Z,8984
2018-09-06T11:43:33.757Z,8540
2018-09-06T11:44:34.495Z,8364
2018-09-06T11:45:35.483Z,8380
2018-09-06T11:46:36.474Z,8428
2018-09-06T11:47:37.220Z,8492
2018-09-06T11:48:37.943Z,8620
2018-09-06T11:49:38.688Z,8916
2018-09-06T11:50:39.428Z,9336
2018-09-06T11:51:41.175Z,9892
2018-09-06T11:52:41.914Z,10428
2018-09-06T11:53:42.927Z,10888
2018-09-06T11:54:43.648Z,11280
2018-09-06T11:55:44.384Z,11672
2018-09-06T11:56:45.115Z,12232
2018-09-06T11:57:45.847Z,12956
2018-09-06T11:58:46.577Z,14000
2018-09-06T11:59:47.327Z,14876
2018-09-06T12:00:48.054Z,15336
2018-09-06T12:01:48.798Z,15212
2018-09-06T12:02:49.884Z,14580
2018-09-06T12:03:50.627Z,13640
2018-09-06T12:04:51.355Z,12716
2018-09-06T12:05:52.091Z,11788
2018-09-06T12:06:53.074Z,10760
2018-09-06T12:07:54.052Z,9668
2018-09-06T12:08:54.789Z,8580
2018-09-06T12:09:55.526Z,7568
2018-09-06T12:10:56.261Z,6776
2018-09-06T12:11:56.999Z,6276
2018-09-06T12:12:57.735Z,6212
2018-09-06T12:13:58.473Z,6584
2018-09-06T12:14:59.216Z,7276
2018-09-06T12:15:59.939Z,8068
2018-09-06T12:17:00.698Z,8708
2018-09-06T12:18:01.425Z,9072
2018-09-06T12:19:02.174Z,9228
2018-09-06T12:20:02.916Z,9272
2018-09-06T12:21:03.653Z,9232
2018-09-06T12:22:04.400Z,9188
2018-09-06T12:23:05.135Z,9180
2018-09-06T12:24:05.877Z,9248
2018-09-06T12:25:06.621Z,9320
2018-09-06T12:26:07.365Z,9424
2018-09-06T12:27:08.100Z,9520
2018-09-06T12:28:08.838Z,9656
2018-09-06T12:29:09.624Z,9768
2018-09-06T12:30:10.362Z,10036
2018-09-06T12:31:11.098Z,10188
2018-09-06T12:32:11.841Z,10376
2018-09-06T12:33:12.646Z,10664
2018-09-06T12:34:13.313Z,10648
2018-09-06T12:35:14.061Z,10612
2018-09-06T12:36:14.800Z,10596
2018-09-06T12:37:15.529Z,10552
2018-09-06T12:38:16.268Z,10884
2018-09-06T12:39:16.994Z,11708
2018-09-06T12:40:17.734Z,13096
2018-09-06T12:41:18.471Z,16268
2018-09-06T12:42:19.554Z,19456
2018-09-06T12:43:20.294Z,21248
2018-09-06T12:44:21.040Z,23552
2018-09-06T12:45:21.784Z,26016
2018-09-06T12:46:22.516Z,27616
2018-09-06T12:47:23.300Z,29088
2018-09-06T12:48:24.030Z,29248
2018-09-06T12:49:24.762Z,28704
2018-09-06T12:50:25.495Z,28480
2018-09-06T12:51:26.262Z,27808
2018-09-06T12:52:27.033Z,27456
2018-09-06T12:53:27.770Z,26784
2018-09-06T12:54:28.513Z,27136
2018-09-06T12:55:29.256Z,27456
2018-09-06T12:56:30.032Z,28384
2018-09-06T12:57:30.728Z,28672
2018-09-06T12:58:31.506Z,29312
2018-09-06T12:59:32.248Z,29472
2018-09-06T13:00:32.982Z,29472
2018-09-06T13:01:33.976Z,29792
2018-09-06T13:02:34.959Z,29952
2018-09-06T13:03:36.043Z,29856
2018-09-06T13:04:36.801Z,29920
2018-09-06T13:05:37.532Z,29952
2018-09-06T13:06:38.276Z,30304
2018-09-06T13:07:39.004Z,28960
2018-09-06T13:08:40.033Z,28704
2018-09-06T13:09:40.770Z,27712
2018-09-06T13:10:41.499Z,26016
2018-09-06T13:11:42.249Z,24096
2018-09-06T13:12:42.984Z,22240
2018-09-06T13:13:43.764Z,20608
2018-09-06T13:14:44.492Z,19232
2018-09-06T13:15:45.223Z,18144
2018-09-06T13:16:45.953Z,16896
2018-09-06T13:17:46.687Z,16188
2018-09-06T13:18:47.589Z,15832
2018-09-06T13:19:48.207Z,15624
2018-09-06T13:20:48.943Z,15216
2018-09-06T13:21:49.688Z,14824
2018-09-06T13:22:50.418Z,14444
2018-09-06T13:23:51.201Z,14328
2018-09-06T13:24:51.939Z,14628
2018-09-06T13:25:52.933Z,14660
2018-09-06T13:26:53.680Z,13844
2018-09-06T13:27:54.418Z,12364
2018-09-06T13:28:55.155Z,11140
2018-09-06T13:29:55.890Z,10704
2018-09-06T13:30:56.631Z,10680
2018-09-06T13:31:57.361Z,10800
2018-09-06T13:32:58.107Z,10868
2018-09-06T13:33:58.842Z,10732
2018-09-06T13:34:59.589Z,10328
2018-09-06T13:36:00.317Z,9860
2018-09-06T13:37:01.050Z,9552
2018-09-06T13:38:01.784Z,9532
2018-09-06T13:39:02.525Z,9672
2018-09-06T13:40:03.283Z,9716
2018-09-06T13:41:04.024Z,9768
2018-09-06T13:42:04.758Z,9900
2018-09-06T13:43:05.489Z,9964
2018-09-06T13:44:06.239Z,9964
2018-09-06T13:45:06.981Z,9948
2018-09-06T13:46:07.708Z,9892
2018-09-06T13:47:08.444Z,9904